Time;durP1;ratioP1;P1;durP2;ratioP2;P2;SDS_P1;SDS_P2;PMS_P1;PMS_P2;Temp;Humidity;BMP_temperature;BMP_pressure;BME280_temperature;BME280_humidity;BME280_pressure;Samples;Min_cycle;Max_cycle;Signal;HPM_P1;HPM_P2
2023/04/30 00:02:11;;;;;;;3.30;1.80;;;;;;;6.99;100.00;100183.00;105841;1254;61297;-52
2023/04/30 00:04:38;;;;;;;3.50;2.10;;;;;;;6.95;100.00;100193.17;105781;1252;62773;-52
2023/04/30 00:07:07;;;;;;;3.20;2.00;;;;;;;6.91;100.00;100205.20;105798;1253;75755;-52
2023/04/30 00:09:34;;;;;;;3.00;2.20;;;;;;;6.86;100.00;100215.52;105927;1254;67097;-52
2023/04/30 00:12:01;;;;;;;2.70;2.00;;;;;;;6.83;100.00;100227.55;105777;1254;73299;-52
2023/04/30 00:14:28;;;;;;;2.50;1.90;;;;;;;6.79;100.00;100235.13;105747;1257;61539;-51
2023/04/30 00:16:56;;;;;;;3.90;2.00;;;;;;;6.73;100.00;100253.36;105881;1256;62850;-52
2023/04/30 00:19:23;;;;;;;3.50;1.80;;;;;;;6.68;100.00;100269.14;105799;1254;74269;-50
2023/04/30 00:21:50;;;;;;;2.70;1.90;;;;;;;6.61;100.00;100288.22;105787;1253;66880;-50
2023/04/30 00:24:17;;;;;;;2.30;1.70;;;;;;;6.55;100.00;100318.59;105850;1252;74414;-50
2023/04/30 00:26:44;;;;;;;2.70;2.40;;;;;;;6.49;100.00;100347.08;105812;1254;64124;-51
2023/04/30 00:29:11;;;;;;;5.80;1.90;;;;;;;6.41;100.00;100378.64;105786;1257;62731;-50
2023/04/30 00:31:38;;;;;;;2.30;1.80;;;;;;;6.32;100.00;100405.75;105907;1253;75516;-50
2023/04/30 00:34:05;;;;;;;2.60;1.90;;;;;;;6.24;100.00;100436.79;105884;1254;66311;-51
2023/04/30 00:36:32;;;;;;;5.60;2.70;;;;;;;6.17;100.00;100459.92;105690;1257;75302;-49
2023/04/30 00:38:59;;;;;;;4.80;2.20;;;;;;;6.13;100.00;100484.59;105878;1254;64941;-51
2023/04/30 00:41:27;;;;;;;2.00;1.80;;;;;;;6.10;100.00;100508.06;105770;1254;62794;-52
2023/04/30 00:43:54;;;;;;;2.80;2.10;;;;;;;6.07;100.00;100529.82;105711;1257;75858;-50
2023/04/30 00:46:21;;;;;;;1.90;1.80;;;;;;;6.03;100.00;100540.09;105840;1254;66949;-49
2023/04/30 00:48:49;;;;;;;3.50;2.30;;;;;;;6.00;100.00;100556.18;105741;1254;74484;-50
2023/04/30 00:51:16;;;;;;;4.20;2.70;;;;;;;5.99;100.00;100571.59;105862;1257;64137;-52
2023/04/30 00:53:42;;;;;;;3.10;2.70;;;;;;;5.97;100.00;100580.66;105850;1254;62749;-51
2023/04/30 00:56:10;;;;;;;3.80;3.10;;;;;;;5.95;100.00;100584.95;105640;1257;73533;-50
2023/04/30 00:58:37;;;;;;;3.20;2.70;;;;;;;5.93;100.00;100588.52;105844;1254;66492;-49
2023/04/30 01:01:04;;;;;;;5.20;3.10;;;;;;;5.91;100.00;100589.71;105673;1257;73849;-51
2023/04/30 01:03:31;;;;;;;3.00;2.80;;;;;;;5.89;100.00;100591.59;105687;1259;64176;-52
2023/04/30 01:05:58;;;;;;;3.40;3.20;;;;;;;5.85;100.00;100590.21;105813;1257;62175;-48
2023/04/30 01:08:25;;;;;;;3.50;2.70;;;;;;;5.82;100.00;100593.80;105736;1252;75235;-48
2023/04/30 01:11:00;;;;;;;3.10;2.90;;;;;;;5.78;100.00;100587.79;105681;1253;68369;-49
2023/04/30 01:13:52;;;;;;;4.50;3.50;;;;;;;5.75;100.00;100589.49;105728;1253;74927;-50
2023/04/30 01:16:25;;;;;;;4.00;3.00;;;;;;;5.73;100.00;100583.33;105716;1257;63428;-52
2023/04/30 01:18:56;;;;;;;5.50;3.70;;;;;;;5.68;100.00;100582.79;105901;1257;61874;-51
2023/04/30 01:21:24;;;;;;;5.10;4.00;;;;;;;5.64;100.00;100581.40;105880;1257;75343;-52
2023/04/30 01:24:21;;;;;;;14.30;4.10;;;;;;;5.61;100.00;100578.66;105861;1253;67475;-50
2023/04/30 01:27:06;;;;;;;6.00;3.90;;;;;;;5.58;100.00;100571.62;105748;1257;75157;-51
2023/04/30 01:29:33;;;;;;;8.90;4.20;;;;;;;5.57;100.00;100558.95;105724;1257;62250;-52
2023/04/30 01:32:02;;;;;;;5.10;3.90;;;;;;;5.54;100.00;100554.98;105924;1254;62809;-50
2023/04/30 01:34:29;;;;;;;5.60;4.10;;;;;;;5.53;100.00;100544.89;105695;1258;75617;-50
2023/04/30 01:37:20;;;;;;;7.70;4.60;;;;;;;5.50;100.00;100541.80;105705;1258;66812;-50
2023/04/30 01:39:50;;;;;;;7.20;4.70;;;;;;;5.47;100.00;100530.67;105892;1253;73576;-51
2023/04/30 01:42:16;;;;;;;12.20;5.30;;;;;;;5.44;100.00;100521.59;105736;1257;62616;-53
2023/04/30 01:45:00;;;;;;;8.60;4.80;;;;;;;5.43;100.00;100519.70;105657;1257;63131;-51
2023/04/30 01:47:47;;;;;;;7.60;5.00;;;;;;;5.43;100.00;100510.27;105503;1259;74482;-50
2023/04/30 01:50:24;;;;;;;7.10;5.40;;;;;;;5.43;100.00;100505.66;105730;1254;65427;-53
2023/04/30 01:52:53;;;;;;;10.50;5.40;;;;;;;5.45;100.00;100506.02;105862;1256;73441;-52
2023/04/30 01:55:25;;;;;;;13.20;5.40;;;;;;;5.44;100.00;100499.52;105718;1254;64489;-50
2023/04/30 01:57:57;;;;;;;7.30;4.80;;;;;;;5.41;100.00;100493.15;105889;1256;61711;-48
2023/04/30 02:00:29;;;;;;;8.40;4.30;;;;;;;5.39;100.00;100489.89;105711;1252;75161;-50
2023/04/30 02:02:57;;;;;;;7.50;4.20;;;;;;;5.35;100.00;100485.27;105667;1254;66711;-51
2023/04/30 02:05:24;;;;;;;13.60;4.70;;;;;;;5.29;100.00;100479.25;105912;1254;74890;-51
2023/04/30 02:07:51;;;;;;;4.80;4.30;;;;;;;5.25;100.00;100472.22;105895;1252;64223;-49
2023/04/30 02:10:20;;;;;;;4.30;3.90;;;;;;;5.24;100.00;100467.25;105724;1253;62792;-50
2023/04/30 02:12:48;;;;;;;5.70;3.90;;;;;;;5.21;100.00;100460.23;105866;1257;75578;-49
2023/04/30 02:15:15;;;;;;;5.50;4.50;;;;;;;5.18;100.00;100457.48;105651;1258;67064;-51
2023/04/30 02:17:42;;;;;;;8.50;4.90;;;;;;;5.14;100.00;100450.61;105851;1254;74478;-48
2023/04/30 02:20:10;;;;;;;4.90;4.00;;;;;;;5.12;100.00;100440.85;105872;1252;63586;-51
2023/04/30 02:22:37;;;;;;;5.60;4.60;;;;;;;5.09;100.00;100438.11;105919;1253;62754;-49
2023/04/30 02:25:05;;;;;;;6.60;5.00;;;;;;;5.05;100.00;100433.65;105776;1254;75527;-48
2023/04/30 02:27:32;;;;;;;5.00;4.50;;;;;;;5.03;100.00;100429.71;105823;1253;67012;-50
2023/04/30 02:29:59;;;;;;;5.50;4.00;;;;;;;5.01;100.00;100428.33;105951;1254;73788;-49
2023/04/30 02:32:26;;;;;;;7.70;4.50;;;;;;;5.01;100.00;100425.59;105907;1254;64440;-57
2023/04/30 02:34:53;;;;;;;4.50;4.10;;;;;;;4.97;100.00;100422.67;105862;1257;62059;-53
2023/04/30 02:37:20;;;;;;;8.20;4.30;;;;;;;4.95;100.00;100414.11;105617;1253;77293;-49
2023/04/30 02:39:48;;;;;;;6.50;4.00;;;;;;;4.94;100.00;100415.65;105658;1253;65747;-55
2023/04/30 02:42:15;;;;;;;4.80;4.00;;;;;;;4.90;100.00;100410.84;105908;1252;74613;-50
2023/04/30 02:44:43;;;;;;;4.90;4.40;;;;;;;4.85;100.00;100400.56;105933;1257;64733;-52
2023/04/30 02:47:10;;;;;;;5.60;4.30;;;;;;;4.83;100.00;100395.26;105888;1256;61965;-47
2023/04/30 02:49:37;;;;;;;9.20;3.90;;;;;;;4.82;100.00;100389.77;105661;1254;75245;-49
2023/04/30 02:52:06;;;;;;;4.60;3.90;;;;;;;4.79;100.00;100387.02;105891;1253;68112;-51
2023/04/30 02:54:33;;;;;;;11.10;4.90;;;;;;;4.75;100.00;100385.46;105689;1259;74090;-49
2023/04/30 02:57:00;;;;;;;6.40;4.50;;;;;;;4.74;100.00;100380.85;105852;1252;63473;-50
2023/04/30 02:59:28;;;;;;;4.90;4.50;;;;;;;4.75;100.00;100379.14;105761;1257;63315;-50
2023/04/30 03:01:55;;;;;;;4.90;4.40;;;;;;;4.76;100.00;100374.02;105831;1257;76744;-50
2023/04/30 03:04:22;;;;;;;7.30;4.20;;;;;;;4.77;100.00;100370.42;105655;1253;67383;-49
2023/04/30 03:06:49;;;;;;;4.40;3.80;;;;;;;4.78;100.00;100365.81;105854;1255;74460;-51
2023/04/30 03:09:17;;;;;;;13.20;4.70;;;;;;;4.77;100.00;100360.85;105913;1255;63414;-48
2023/04/30 03:11:44;;;;;;;5.20;4.30;;;;;;;4.75;100.00;100360.50;105779;1254;62694;-48
2023/04/30 03:14:11;;;;;;;5.70;3.80;;;;;;;4.72;100.00;100358.95;105872;1252;75260;-49
2023/04/30 03:16:38;;;;;;;5.20;4.00;;;;;;;4.71;100.00;100354.16;105644;1253;67066;-48
2023/04/30 03:19:05;;;;;;;12.70;4.30;;;;;;;4.69;100.00;100355.36;105761;1257;74106;-48
2023/04/30 03:21:32;;;;;;;5.40;3.40;;;;;;;4.68;100.00;100350.91;105859;1257;64817;-49
2023/04/30 03:24:00;;;;;;;8.40;4.00;;;;;;;4.65;100.00;100354.13;105768;1254;61345;-49
2023/04/30 03:26:27;;;;;;;6.40;3.60;;;;;;;4.63;100.00;100355.65;105796;1254;76513;-50
2023/04/30 03:28:54;;;;;;;5.30;4.10;;;;;;;4.62;100.00;100357.54;105756;1254;67549;-48
2023/04/30 03:31:22;;;;;;;8.20;4.10;;;;;;;4.62;100.00;100356.17;105774;1254;75043;-48
2023/04/30 03:33:49;;;;;;;5.10;4.30;;;;;;;4.64;100.00;100352.77;105681;1252;64488;-49
2023/04/30 03:36:17;;;;;;;6.90;4.10;;;;;;;4.66;100.00;100349.85;105951;1254;62316;-50
2023/04/30 03:38:44;;;;;;;4.10;3.70;;;;;;;4.68;100.00;100351.76;105847;1257;76688;-50
2023/04/30 03:41:11;;;;;;;7.70;4.00;;;;;;;4.68;100.00;100351.59;105769;1255;67463;-50
2023/04/30 03:43:38;;;;;;;5.10;4.50;;;;;;;4.69;100.00;100346.46;105681;1259;73960;-50
2023/04/30 03:46:05;;;;;;;6.80;4.20;;;;;;;4.68;100.00;100339.45;105640;1258;63389;-50
2023/04/30 03:48:32;;;;;;;6.30;4.50;;;;;;;4.68;100.00;100334.15;105916;1256;61895;-50
2023/04/30 03:50:59;;;;;;;6.90;4.20;;;;;;;4.72;100.00;100330.23;105741;1253;76246;-50
2023/04/30 03:53:26;;;;;;;6.20;4.00;;;;;;;4.73;100.00;100332.80;105827;1254;65824;-50
2023/04/30 03:55:53;;;;;;;9.50;4.80;;;;;;;4.71;100.00;100331.26;105857;1253;74099;-49
2023/04/30 03:58:21;;;;;;;5.60;3.20;;;;;;;4.70;100.00;100329.20;105666;1254;64180;-49
2023/04/30 04:00:48;;;;;;;4.20;3.80;;;;;;;4.68;100.00;100327.49;105714;1258;61596;-49
2023/04/30 04:03:15;;;;;;;3.90;3.50;;;;;;;4.68;100.00;100322.35;105686;1254;76216;-49
2023/04/30 04:05:42;;;;;;;7.00;3.90;;;;;;;4.64;100.00;100318.73;105893;1254;67655;-49
2023/04/30 04:08:09;;;;;;;4.70;3.70;;;;;;;4.60;100.00;100318.73;105751;1254;73239;-49
2023/04/30 04:10:37;;;;;;;3.70;3.50;;;;;;;4.59;100.00;100319.23;105713;1253;63076;-49
2023/04/30 04:13:05;;;;;;;6.90;3.90;;;;;;;4.59;100.00;100316.67;105887;1255;63093;-49
2023/04/30 04:15:33;;;;;;;5.60;4.10;;;;;;;4.58;100.00;100312.58;105877;1254;76390;-50
2023/04/30 04:18:00;;;;;;;5.10;3.70;;;;;;;4.58;100.00;100307.61;105742;1257;66402;-49
2023/04/30 04:20:28;;;;;;;4.00;3.30;;;;;;;4.59;100.00;100305.91;105635;1258;74144;-50
2023/04/30 04:22:56;;;;;;;9.70;3.20;;;;;;;4.59;100.00;100301.98;105767;1254;64135;-50
2023/04/30 04:25:26;;;;;;;4.90;3.20;;;;;;;4.60;100.00;100298.57;105776;1258;61826;-49
2023/04/30 04:27:53;;;;;;;7.00;4.00;;;;;;;4.60;100.00;100297.89;105850;1252;75460;-49
2023/04/30 04:30:20;;;;;;;41.60;19.10;;;;;;;4.63;100.00;100296.52;105767;1254;65046;-49
2023/04/30 04:32:52;;;;;;;4.90;3.40;;;;;;;4.66;100.00;100291.40;105841;1256;74877;-50
2023/04/30 04:35:20;;;;;;;6.50;3.20;;;;;;;4.68;100.00;100286.98;105783;1254;64178;-49
2023/04/30 04:37:47;;;;;;;4.20;3.80;;;;;;;4.69;100.00;100282.02;105799;1257;61299;-49
2023/04/30 04:40:15;;;;;;;8.00;5.10;;;;;;;4.68;100.00;100283.39;105723;1257;75331;-49
2023/04/30 04:42:42;;;;;;;5.90;3.40;;;;;;;4.67;100.00;100279.61;105917;1257;66172;-50
2023/04/30 04:45:11;;;;;;;3.60;3.30;;;;;;;4.69;100.00;100280.81;105811;1257;73380;-49
2023/04/30 04:47:38;;;;;;;4.30;3.80;;;;;;;4.66;100.00;100275.66;105824;1254;64893;-49
2023/04/30 04:50:06;;;;;;;10.00;5.60;;;;;;;4.64;100.00;100270.02;105676;1254;61748;-49
2023/04/30 04:52:33;;;;;;;6.00;3.30;;;;;;;4.66;100.00;100270.54;105729;1254;75202;-49
2023/04/30 04:55:00;;;;;;;5.80;4.10;;;;;;;4.67;100.00;100269.67;105890;1254;67178;-50
2023/04/30 04:57:27;;;;;;;5.50;3.10;;;;;;;4.67;100.00;100270.20;105889;1255;73714;-50
2023/04/30 04:59:55;;;;;;;4.60;2.90;;;;;;;4.72;100.00;100265.77;105661;1254;64464;-49
2023/04/30 05:02:23;;;;;;;6.60;2.60;;;;;;;4.77;100.00;100261.67;105677;1254;63166;-50
2023/04/30 05:04:50;;;;;;;3.80;2.90;;;;;;;4.77;100.00;100256.89;105603;1252;75565;-49
2023/04/30 05:07:18;;;;;;;6.60;3.30;;;;;;;4.80;100.00;100254.68;105666;1255;65744;-49
2023/04/30 05:09:48;;;;;;;5.00;2.90;;;;;;;4.85;100.00;100257.42;105705;1254;74589;-50
2023/04/30 05:12:15;;;;;;;6.90;3.10;;;;;;;4.87;100.00;100255.72;105649;1259;63418;-50
2023/04/30 05:14:42;;;;;;;3.70;2.90;;;;;;;4.90;100.00;100252.13;105773;1257;62058;-50
2023/04/30 05:17:10;;;;;;;4.30;3.00;;;;;;;4.93;100.00;100255.73;105874;1257;75844;-50
2023/04/30 05:19:37;;;;;;;15.40;9.50;;;;;;;4.96;100.00;100252.31;105881;1257;66090;-50
2023/04/30 05:22:04;;;;;;;10.70;7.30;;;;;;;4.95;100.00;100245.98;105759;1256;75174;-50
2023/04/30 05:24:33;;;;;;;3.00;2.50;;;;;;;4.98;100.00;100245.99;105783;1257;63300;-50
2023/04/30 05:27:01;;;;;;;5.40;2.50;;;;;;;4.98;100.00;100241.89;105831;1256;61228;-50
2023/04/30 05:29:28;;;;;;;5.20;4.70;;;;;;;4.97;100.00;100246.16;105789;1254;75410;-50
2023/04/30 05:31:55;;;;;;;5.90;3.60;;;;;;;5.03;100.00;100244.63;105867;1254;66986;-50
2023/04/30 05:34:22;;;;;;;9.70;7.60;;;;;;;5.07;100.00;100255.92;105759;1256;74399;-50
2023/04/30 05:36:49;;;;;;;4.50;3.20;;;;;;;5.07;100.00;100263.98;105783;1254;64165;-50
2023/04/30 05:39:17;;;;;;;6.30;2.80;;;;;;;5.09;100.00;100268.59;105841;1253;61142;-54
2023/04/30 05:41:44;;;;;;;6.00;3.70;;;;;;;5.10;100.00;100271.67;105856;1257;76005;-54
2023/04/30 05:44:10;;;;;;;5.10;3.40;;;;;;;5.07;100.00;100272.35;105746;1254;67325;-51
2023/04/30 05:46:37;;;;;;;6.60;3.40;;;;;;;5.06;100.00;100276.62;105588;1256;73880;-49
2023/04/30 05:49:04;;;;;;;3.20;3.00;;;;;;;5.07;100.00;100282.62;105840;1254;64813;-50
2023/04/30 05:51:32;;;;;;;3.50;3.20;;;;;;;5.06;100.00;100286.89;105827;1254;61777;-53
2023/04/30 05:53:59;;;;;;;3.40;3.10;;;;;;;5.06;100.00;100289.96;105593;1254;76149;-51
2023/04/30 05:56:26;;;;;;;4.30;3.20;;;;;;;5.06;100.00;100293.90;105651;1254;67084;-55
2023/04/30 05:58:53;;;;;;;3.10;2.70;;;;;;;5.04;100.00;100292.35;105780;1258;73671;-52
2023/04/30 06:01:21;;;;;;;5.90;3.20;;;;;;;5.04;100.00;100293.71;105753;1254;63245;-50
2023/04/30 06:03:48;;;;;;;5.00;3.50;;;;;;;5.07;100.00;100295.27;105810;1252;60364;-50
2023/04/30 06:06:15;;;;;;;10.90;3.00;;;;;;;5.09;100.00;100290.65;105867;1256;76124;-49
2023/04/30 06:08:44;;;;;;;3.40;2.30;;;;;;;5.08;100.00;100292.70;105795;1259;65817;-50
2023/04/30 06:11:11;;;;;;;4.60;2.20;;;;;;;5.06;100.00;100292.70;105852;1256;74098;-51
2023/04/30 06:13:39;;;;;;;3.50;2.70;;;;;;;5.02;100.00;100288.41;105859;1252;62602;-49
2023/04/30 06:16:07;;;;;;;4.50;3.20;;;;;;;4.98;100.00;100289.95;105658;1254;62490;-49
2023/04/30 06:18:34;;;;;;;5.70;2.40;;;;;;;4.98;100.00;100289.60;105887;1257;75199;-50
2023/04/30 06:21:01;;;;;;;3.60;2.20;;;;;;;4.97;100.00;100292.67;105887;1254;67107;-51
2023/04/30 06:23:28;;;;;;;2.20;2.00;;;;;;;4.95;100.00;100294.05;105856;1254;75329;-50
2023/04/30 06:25:55;;;;;;;1.70;1.60;;;;;;;4.92;100.00;100298.48;105868;1254;64210;-51
2023/04/30 06:28:22;;;;;;;2.20;2.10;;;;;;;4.93;100.00;100299.35;105903;1254;62639;-50
2023/04/30 06:30:50;;;;;;;5.30;2.50;;;;;;;4.95;100.00;100294.57;105842;1256;76414;-51
2023/04/30 06:33:17;;;;;;;2.80;2.50;;;;;;;5.00;100.00;100287.90;105862;1257;66112;-50
2023/04/30 06:35:45;;;;;;;9.60;2.30;;;;;;;5.06;100.00;100285.52;105746;1255;74561;-50
2023/04/30 06:38:13;;;;;;;2.20;1.80;;;;;;;5.10;100.00;100285.00;105863;1256;63393;-51
2023/04/30 06:40:40;;;;;;;2.10;1.90;;;;;;;5.14;100.00;100281.08;105781;1253;63225;-50
2023/04/30 06:43:07;;;;;;;1.40;1.30;;;;;;;5.17;100.00;100278.85;105824;1254;75156;-49
2023/04/30 06:45:34;;;;;;;1.90;1.80;;;;;;;5.18;100.00;100278.35;105824;1253;66265;-49
2023/04/30 06:48:01;;;;;;;1.80;1.70;;;;;;;5.18;100.00;100274.08;105873;1257;75182;-51
2023/04/30 06:50:28;;;;;;;1.70;1.60;;;;;;;5.18;100.00;100270.33;105784;1254;63440;-49
2023/04/30 06:52:55;;;;;;;1.60;1.40;;;;;;;5.20;100.00;100266.20;105829;1254;62744;-50
2023/04/30 06:55:23;;;;;;;1.40;1.30;;;;;;;5.17;100.00;100266.38;105832;1258;76366;-51
2023/04/30 06:57:50;;;;;;;1.70;1.60;;;;;;;5.17;100.00;100262.77;105853;1257;67148;-50
2023/04/30 07:00:17;;;;;;;1.30;1.20;;;;;;;5.21;100.00;100262.77;105811;1254;73748;-50
2023/04/30 07:02:46;;;;;;;3.30;1.90;;;;;;;5.19;100.00;100259.88;105804;1254;62636;-49
2023/04/30 07:05:15;;;;;;;1.80;1.60;;;;;;;5.21;100.00;100254.23;105772;1257;61798;-51
2023/04/30 07:07:42;;;;;;;4.40;2.00;;;;;;;5.27;100.00;100247.55;105842;1256;75028;-49
2023/04/30 07:10:09;;;;;;;3.40;1.40;;;;;;;5.31;100.00;100249.10;105824;1254;67106;-51
2023/04/30 07:12:36;;;;;;;1.70;1.60;;;;;;;5.36;100.00;100244.13;105840;1254;75254;-49
2023/04/30 07:15:04;;;;;;;3.00;1.60;;;;;;;5.37;100.00;100239.66;105826;1255;63352;-51
2023/04/30 07:17:31;;;;;;;2.40;1.30;;;;;;;5.37;100.00;100240.19;105840;1254;62871;-49
2023/04/30 07:19:58;;;;;;;2.40;1.40;;;;;;;5.37;100.00;100235.23;105864;1256;76595;-50
2023/04/30 07:22:26;;;;;;;3.00;1.50;;;;;;;5.37;100.00;100232.14;105863;1254;68098;-50
2023/04/30 07:24:54;;;;;;;1.40;1.30;;;;;;;5.36;100.00;100227.86;105868;1255;75255;-49
2023/04/30 07:27:21;;;;;;;1.80;1.10;;;;;;;5.39;100.00;100223.06;105876;1253;64321;-50
2023/04/30 07:29:48;;;;;;;2.40;1.60;;;;;;;5.37;100.00;100219.65;105853;1254;62464;-51
2023/04/30 07:32:15;;;;;;;1.50;1.20;;;;;;;5.38;100.00;100212.30;105906;1257;74176;-51
2023/04/30 07:34:42;;;;;;;1.80;1.70;;;;;;;5.49;100.00;100210.91;105814;1254;66862;-51
2023/04/30 07:37:09;;;;;;;1.10;1.10;;;;;;;5.57;100.00;100209.02;105843;1256;74954;-49
2023/04/30 07:39:37;;;;;;;2.20;1.50;;;;;;;5.61;100.00;100209.87;105818;1254;62725;-52
2023/04/30 07:42:05;;;;;;;1.80;1.30;;;;;;;5.62;100.00;100209.34;105681;1259;61591;-49
2023/04/30 07:44:32;;;;;;;1.60;1.30;;;;;;;5.66;100.00;100207.80;105855;1254;74486;-50
2023/04/30 07:46:59;;;;;;;1.70;1.50;;;;;;;5.72;100.00;100210.53;105787;1254;67575;-51
2023/04/30 07:49:27;;;;;;;1.80;1.50;;;;;;;5.76;100.00;100205.04;105848;1256;75205;-51
2023/04/30 07:51:55;;;;;;;1.40;1.30;;;;;;;5.72;100.00;100203.51;105889;1254;64423;-51
2023/04/30 07:54:22;;;;;;;2.90;1.00;;;;;;;5.70;100.00;100206.27;105954;1257;62525;-51
2023/04/30 07:56:49;;;;;;;3.90;1.30;;;;;;;5.65;100.00;100207.62;105927;1257;76267;-51
2023/04/30 07:59:16;;;;;;;2.70;1.40;;;;;;;5.67;100.00;100205.57;105816;1254;65910;-51
2023/04/30 08:01:43;;;;;;;1.60;1.20;;;;;;;5.75;100.00;100203.51;105813;1257;74964;-51
2023/04/30 08:04:11;;;;;;;3.70;1.30;;;;;;;5.79;100.00;100203.84;105875;1254;63431;-51
2023/04/30 08:06:38;;;;;;;3.80;1.20;;;;;;;5.79;100.00;100209.14;105861;1253;63066;-51
2023/04/30 08:09:05;;;;;;;1.30;1.20;;;;;;;5.84;100.00;100219.75;105874;1254;75259;-52
2023/04/30 08:11:32;;;;;;;8.30;1.70;;;;;;;5.79;100.00;100222.49;105833;1254;66186;-51
2023/04/30 08:13:59;;;;;;;2.90;1.40;;;;;;;5.74;100.00;100224.56;105802;1257;73979;-50
2023/04/30 08:16:26;;;;;;;1.80;1.40;;;;;;;5.72;100.00;100225.77;105904;1254;64396;-50
2023/04/30 08:18:54;;;;;;;4.20;1.70;;;;;;;5.73;100.00;100229.20;105872;1257;61444;-50
2023/04/30 08:21:21;;;;;;;1.10;1.00;;;;;;;5.78;100.00;100228.67;105873;1254;76420;-51
2023/04/30 08:23:48;;;;;;;4.50;1.20;;;;;;;5.79;100.00;100227.80;105825;1254;67094;-51
2023/04/30 08:26:15;;;;;;;2.10;1.30;;;;;;;5.69;100.00;100225.44;105863;1256;75000;-51
2023/04/30 08:28:42;;;;;;;1.30;1.20;;;;;;;5.62;100.00;100225.27;105859;1255;64237;-51
2023/04/30 08:31:09;;;;;;;4.40;2.70;;;;;;;5.64;100.00;100220.46;105817;1254;62703;-50
2023/04/30 08:33:36;;;;;;;1.10;1.10;;;;;;;5.67;100.00;100224.06;105676;1259;76525;-50
2023/04/30 08:36:04;;;;;;;4.10;1.00;;;;;;;5.69;100.00;100218.23;105899;1257;67619;-49
2023/04/30 08:38:31;;;;;;;1.60;1.30;;;;;;;5.68;100.00;100217.90;105882;1254;73116;-50
2023/04/30 08:41:11;;;;;;;1.30;0.90;;;;;;;5.70;100.00;100219.62;105880;1254;62262;-50
2023/04/30 08:43:39;;;;;;;1.10;1.00;;;;;;;5.75;100.00;100217.71;105912;1257;61841;-49
2023/04/30 08:46:06;;;;;;;6.70;6.00;;;;;;;5.80;100.00;100213.42;105860;1256;75582;-50
2023/04/30 08:48:34;;;;;;;4.20;1.20;;;;;;;5.78;100.00;100211.20;105818;1260;66177;-51
2023/04/30 08:51:02;;;;;;;7.20;6.60;;;;;;;5.77;100.00;100214.45;105799;1254;75129;-51
2023/04/30 08:53:37;;;;;;;2.10;1.10;;;;;;;5.75;100.00;100221.31;105851;1257;63135;-51
2023/04/30 08:56:04;;;;;;;2.90;0.80;;;;;;;5.76;100.00;100222.85;105762;1254;62089;-51
2023/04/30 08:58:31;;;;;;;1.10;1.10;;;;;;;5.79;100.00;100223.87;105851;1252;76158;-51
2023/04/30 09:00:58;;;;;;;2.00;1.30;;;;;;;5.81;100.00;100221.29;105842;1254;67558;-51
2023/04/30 09:03:27;;;;;;;1.90;1.80;;;;;;;5.80;100.00;100224.04;105818;1254;74141;-50
2023/04/30 09:05:54;;;;;;;1.40;1.30;;;;;;;5.78;100.00;100221.65;105795;1254;63432;-51
2023/04/30 09:08:47;;;;;;;1.70;1.20;;;;;;;5.77;100.00;100226.27;105843;1256;61713;-54
2023/04/30 09:11:26;;;;;;;2.50;0.90;;;;;;;5.78;100.00;100226.95;105785;1257;75159;-53
2023/04/30 09:16:48;;;;;;;1.50;1.40;;;;;;;5.85;100.00;100236.20;102768;1290;600838;-55
2023/04/30 09:19:25;;;;;;;0.70;0.70;;;;;;;5.91;100.00;100229.65;104811;1269;63109;-53
2023/04/30 09:21:52;;;;;;;1.10;0.90;;;;;;;5.88;100.00;100229.48;104689;1273;61495;-51
2023/04/30 09:24:19;;;;;;;16.40;7.70;;;;;;;5.91;100.00;100231.54;104783;1271;73763;-51
2023/04/30 09:26:46;;;;;;;3.80;2.50;;;;;;;5.92;100.00;100237.70;104780;1266;66842;-50
2023/04/30 09:29:14;;;;;;;11.20;6.50;;;;;;;5.95;100.00;100245.41;104639;1267;212547;-51
2023/04/30 09:31:45;;;;;;;8.80;3.10;;;;;;;5.89;100.00;100239.42;105103;1264;64742;-50
2023/04/30 09:34:13;;;;;;;2.10;1.50;;;;;;;5.86;100.00;100246.13;105122;1269;61734;-51
2023/04/30 09:36:56;;;;;;;0.60;0.60;;;;;;;5.85;100.00;100247.15;105072;1268;74683;-51
2023/04/30 09:39:23;;;;;;;2.10;1.40;;;;;;;5.89;100.00;100251.42;105060;1264;66727;-57
2023/04/30 09:41:53;;;;;;;2.00;0.40;;;;;;;5.90;100.00;100249.36;105177;1265;73559;-53
2023/04/30 09:44:27;;;;;;;1.20;1.10;;;;;;;5.87;100.00;100251.77;104957;1265;63221;-52
2023/04/30 09:46:58;;;;;;;1.80;1.30;;;;;;;5.82;100.00;100253.84;104955;1265;61759;-54
2023/04/30 09:49:26;;;;;;;1.30;1.30;;;;;;;5.82;100.00;100258.98;105235;1260;74482;-52
2023/04/30 09:52:00;;;;;;;0.70;0.60;;;;;;;5.84;100.00;100262.56;105299;1262;66172;-52
2023/04/30 09:54:29;;;;;;;1.10;1.00;;;;;;;5.81;100.00;100263.42;105156;1265;75228;-51
2023/04/30 09:56:57;;;;;;;1.70;1.60;;;;;;;5.75;100.00;100267.54;105559;1257;64776;-52
2023/04/30 09:59:32;;;;;;;3.30;2.20;;;;;;;5.74;100.00;100269.95;105541;1262;62036;-51
2023/04/30 10:02:01;;;;;;;1.80;1.70;;;;;;;5.77;100.00;100274.73;105561;1256;75289;-51
2023/04/30 10:04:31;;;;;;;2.10;2.00;;;;;;;5.83;100.00;100277.13;105561;1257;66585;-51
2023/04/30 10:06:58;;;;;;;5.80;2.00;;;;;;;5.93;100.00;100277.79;105581;1258;74451;-50
2023/04/30 10:09:31;;;;;;;3.60;1.60;;;;;;;6.00;100.00;100286.52;105597;1256;62717;-53
2023/04/30 10:11:58;;;;;;;3.40;1.80;;;;;;;6.02;100.00;100289.45;105637;1256;62565;-52
2023/04/30 10:14:25;;;;;;;2.70;2.00;;;;;;;6.00;100.00;100292.17;105241;1263;74742;-51
2023/04/30 10:17:03;;;;;;;2.60;2.40;;;;;;;5.97;100.00;100295.60;105545;1256;67259;-52
2023/04/30 10:19:31;;;;;;;2.70;1.40;;;;;;;5.96;100.00;100295.95;105527;1260;74229;-51
2023/04/30 10:21:58;;;;;;;2.90;1.60;;;;;;;5.99;100.00;100298.85;105571;1257;64341;-52
2023/04/30 10:24:25;;;;;;;1.90;1.70;;;;;;;5.98;100.00;100304.16;105462;1261;61009;-52
2023/04/30 10:26:52;;;;;;;6.00;2.90;;;;;;;5.97;100.00;100312.05;105231;1263;75463;-52
2023/04/30 10:29:19;;;;;;;1.40;1.30;;;;;;;5.95;100.00;100319.42;105600;1256;66880;-52
2023/04/30 10:31:48;;;;;;;1.40;1.30;;;;;;;5.91;100.00;100321.81;105575;1257;74549;-52
2023/04/30 10:34:48;;;;;;;1.70;1.50;;;;;;;5.88;100.00;100327.81;105538;1262;63155;-52
2023/04/30 10:37:33;;;;;;;1.40;1.20;;;;;;;5.87;100.00;100328.33;105377;1262;62156;-52
2023/04/30 10:40:03;;;;;;;2.40;0.90;;;;;;;5.87;100.00;100326.10;105558;1260;74502;-52
2023/04/30 10:42:34;;;;;;;5.50;3.10;;;;;;;5.84;100.00;100324.57;105567;1260;66882;-51
2023/04/30 10:45:05;;;;;;;2.60;1.80;;;;;;;5.83;100.00;100321.66;105519;1260;74569;-51
2023/04/30 10:47:32;;;;;;;2.10;1.50;;;;;;;5.85;100.00;100323.70;105514;1260;64510;-51
2023/04/30 10:50:03;;;;;;;1.70;1.20;;;;;;;5.90;100.00;100324.89;105480;1257;63126;-51
2023/04/30 10:52:31;;;;;;;1.90;1.80;;;;;;;5.90;100.00;100321.30;105526;1260;75409;-50
2023/04/30 10:54:58;;;;;;;1.10;1.10;;;;;;;5.87;100.00;100321.30;105577;1257;67659;-51
2023/04/30 10:57:25;;;;;;;1.90;1.80;;;;;;;5.81;100.00;100316.86;105550;1260;74829;-51
2023/04/30 11:00:13;;;;;;;2.20;2.10;;;;;;;5.78;100.00;100321.82;105266;1257;64206;-51
2023/04/30 11:02:42;;;;;;;1.80;1.50;;;;;;;5.73;100.00;100326.29;105350;1262;61756;-51
2023/04/30 11:05:12;;;;;;;0.70;0.70;;;;;;;5.76;100.00;100328.17;105519;1257;74866;-51
2023/04/30 11:07:49;;;;;;;0.80;0.80;;;;;;;5.85;100.00;100332.95;105513;1262;66949;-51
2023/04/30 11:10:21;;;;;;;0.60;0.60;;;;;;;6.00;100.00;100329.35;105618;1260;75227;-51
2023/04/30 11:12:49;;;;;;;0.80;0.80;;;;;;;6.12;100.00;100324.21;105551;1256;64263;-51
2023/04/30 11:15:18;;;;;;;1.40;0.70;;;;;;;6.19;100.00;100326.94;105515;1260;61460;-50
2023/04/30 11:17:49;;;;;;;0.60;0.60;;;;;;;6.17;100.00;100325.91;105532;1260;75428;-51
2023/04/30 11:20:21;;;;;;;1.50;0.60;;;;;;;6.11;100.00;100324.55;105497;1262;66391;-50
2023/04/30 11:23:11;;;;;;;13.10;7.00;;;;;;;6.08;100.00;100319.59;105511;1257;74466;-52
2023/04/30 11:25:45;;;;;;;4.10;2.10;;;;;;;6.07;100.00;100320.45;105517;1262;63385;-52
2023/04/30 11:28:15;;;;;;;5.90;4.30;;;;;;;6.05;100.00;100325.23;105621;1262;62197;-52